首页
METAR-TAF:

METAR-TAF

机场 :

溫莎國際機場

温莎, 安大略省, 加拿大

纬度: 42-16N, 经度: 082-58W, 海拔: 190米

当前天气观测

该预报发布于29分钟前的07:00 UTC
风速6节,风向西北
温度 17°C
湿度 63%
气压 1016 hPa
能見度: 14.5公里
天空无云

METAR: CYQG 230700Z AUTO 32006KT 9SM CLR 17/10 A3000 RMK SLP160 DENSITY ALT 800FT

时间: 03:29 (07:29 UTC)

预报

该预报发布于1小时和42分钟前的05:47 UTC
预报有效从23日的 06点(UTC)到 24日的 06点(UTC)
风速5节,风向北转西北
能見度: 10公里
天空无云
从 23日的 2100点(UTC)
风速12节,风向北转东北
能見度: 8.0公里
多云层高于7000英尺
阵雨
几率 30%
从 23日的 21点(UTC)到 23日的 24点(UTC)
能見度: 3.2公里
多云层高于1500英尺
阴天层高于7000英尺, 积雨云.
雷暴, 大雨, 轻雾
从 24日的 0000点(UTC)
风速12节,风向北转西北
能見度: 10公里
多云层高于5000英尺
短暂存在
从 24日的 00点(UTC)到 24日的 03点(UTC)
能見度: 10公里
小阵雨
从 24日的 0400点(UTC)
风速6节,风向北转西北
能見度: 10公里
少量云层高于7000英尺

TAF: CYQG 230547Z 2306/2406 33005KT P6SM SKC FM232100 02012KT 5SM SHRA BKN070 PROB30 2321/2324 2SM +TSRA BR BKN015 OVC070CB FM240000 33012KT P6SM BKN050 TEMPO 2400/2403 P6SM -SHRA FM240400 34006KT P6SM FEW070 RMK FCST BASED ON AUTO OBS. NXT FCST BY 231200Z

超过4000个机场的气象观测和天气预报(METAR&TAF报告)。

可查询的气象台以黄色和红色小点在地图上表示。

将鼠标移到小点上方,可查看气象台名称。

然后点击查看天气观测和预报。

如需切换地图:点击带黑十字的绿色按钮放大地图;点击带横线的绿色按钮缩小地图;或者点击绿色箭头查看邻近地区的地图。


METAR-TAF: